createdAt,value
2019-03-19T00:01:36.846Z,6.37
2019-03-19T00:04:04.654Z,5.70
2019-03-19T00:06:51.959Z,5.73
2019-03-19T00:09:19.800Z,5.27
2019-03-19T00:11:47.625Z,4.97
2019-03-19T00:14:34.908Z,4.60
2019-03-19T00:17:02.698Z,4.50
2019-03-19T00:19:30.603Z,7.07
2019-03-19T00:21:58.395Z,5.23
2019-03-19T00:24:26.286Z,5.67
2019-03-19T00:26:54.202Z,4.80
2019-03-19T00:29:22.017Z,4.83
2019-03-19T00:31:49.799Z,4.63
2019-03-19T00:34:17.680Z,3.50
2019-03-19T00:36:45.457Z,3.30
2019-03-19T00:39:13.257Z,3.77
2019-03-19T00:41:41.092Z,3.30
2019-03-19T00:44:14.158Z,4.20
2019-03-19T00:46:41.951Z,3.47
2019-03-19T00:49:09.762Z,3.83
2019-03-19T00:51:37.585Z,3.53
2019-03-19T00:54:05.408Z,3.53
2019-03-19T00:56:33.236Z,3.70
2019-03-19T00:59:01.041Z,3.43
2019-03-19T01:01:28.831Z,3.17
2019-03-19T01:04:01.837Z,2.93
2019-03-19T01:06:29.669Z,3.47
2019-03-19T01:08:57.512Z,3.57
2019-03-19T01:11:25.326Z,4.20
2019-03-19T01:13:53.143Z,5.20
2019-03-19T01:16:20.954Z,6.23
2019-03-19T01:18:49.536Z,12.17
2019-03-19T01:21:17.313Z,6.60
2019-03-19T01:23:45.985Z,5.67
2019-03-19T01:26:14.047Z,5.30
2019-03-19T01:28:41.843Z,8.95
2019-03-19T01:31:09.606Z,12.60
2019-03-19T01:33:37.447Z,10.58
2019-03-19T01:36:05.267Z,8.50
2019-03-19T01:38:34.311Z,7.45
2019-03-19T01:41:02.101Z,6.25
2019-03-19T01:43:31.309Z,5.35
2019-03-19T01:45:59.150Z,4.80
2019-03-19T01:48:26.941Z,4.60
2019-03-19T01:50:54.998Z,5.00
2019-03-19T01:53:22.873Z,4.62
2019-03-19T01:55:50.697Z,4.90
2019-03-19T01:58:18.521Z,4.40
2019-03-19T02:00:46.620Z,4.92
2019-03-19T02:03:15.674Z,4.10
2019-03-19T02:06:02.936Z,4.08
2019-03-19T02:08:30.700Z,3.80
2019-03-19T02:10:58.561Z,4.92
2019-03-19T02:13:26.310Z,4.40
2019-03-19T02:15:54.275Z,3.95
2019-03-19T02:18:22.049Z,4.50
2019-03-19T02:20:49.833Z,4.12
2019-03-19T02:23:17.667Z,4.85
2019-03-19T02:25:45.499Z,4.80
2019-03-19T02:28:13.291Z,4.08
2019-03-19T02:30:41.125Z,4.80
2019-03-19T02:33:08.893Z,4.50
2019-03-19T02:35:36.745Z,5.50
2019-03-19T02:38:04.623Z,4.80
2019-03-19T02:40:32.442Z,4.75
2019-03-19T02:43:00.304Z,4.45
2019-03-19T02:45:43.250Z,4.58
2019-03-19T02:48:11.078Z,4.67
2019-03-19T02:50:38.929Z,4.92
2019-03-19T02:53:06.821Z,5.00
2019-03-19T02:58:13.497Z,5.00
2019-03-19T03:00:41.322Z,5.65
2019-03-19T03:03:09.134Z,4.97
2019-03-19T03:05:36.920Z,4.47
2019-03-19T03:08:04.719Z,4.28
2019-03-19T03:10:32.539Z,3.90
2019-03-19T03:13:00.406Z,3.85
2019-03-19T03:15:28.196Z,9.40
2019-03-19T03:17:55.961Z,4.83
2019-03-19T03:20:24.171Z,5.22
2019-03-19T03:22:51.900Z,3.62
2019-03-19T03:25:19.693Z,3.47
2019-03-19T03:27:47.502Z,3.83
2019-03-19T03:30:15.308Z,4.05
2019-03-19T03:32:43.096Z,3.85
2019-03-19T03:35:15.944Z,3.95
2019-03-19T03:37:43.878Z,3.40
2019-03-19T03:40:12.027Z,3.75
2019-03-19T03:42:43.013Z,3.45
2019-03-19T03:45:10.719Z,4.33
2019-03-19T03:47:38.524Z,3.85
2019-03-19T03:50:07.198Z,4.22
2019-03-19T03:52:35.005Z,4.72
2019-03-19T03:55:03.387Z,6.20
2019-03-19T03:57:31.208Z,13.55
2019-03-19T03:59:58.998Z,11.60
2019-03-19T04:02:26.738Z,9.85
2019-03-19T04:04:54.676Z,10.15
2019-03-19T04:07:23.498Z,13.45
2019-03-19T04:09:51.327Z,10.03
2019-03-19T04:12:19.136Z,8.00
2019-03-19T04:14:48.233Z,12.85
2019-03-19T04:17:15.984Z,9.83
2019-03-19T04:19:43.811Z,13.65
2019-03-19T04:22:11.647Z,8.20
2019-03-19T04:24:39.596Z,10.55
2019-03-19T04:27:16.076Z,8.65
2019-03-19T04:29:38.209Z,8.48
2019-03-19T04:32:06.006Z,6.95
2019-03-19T04:34:34.074Z,5.97
2019-03-19T04:37:02.093Z,5.80
2019-03-19T04:39:43.032Z,4.67
2019-03-19T04:42:10.839Z,4.60
2019-03-19T04:44:39.817Z,4.67
2019-03-19T04:47:07.738Z,5.87
2019-03-19T04:49:35.518Z,7.62
2019-03-19T04:52:03.451Z,6.28
2019-03-19T04:54:31.245Z,7.37
2019-03-19T04:57:00.703Z,6.25
2019-03-19T04:59:28.534Z,7.15
2019-03-19T05:01:56.323Z,6.45
2019-03-19T05:04:24.123Z,7.87
2019-03-19T05:06:52.021Z,7.90
2019-03-19T05:09:19.827Z,8.10
2019-03-19T05:11:47.688Z,10.13
2019-03-19T05:14:20.658Z,9.40
2019-03-19T05:16:48.502Z,13.13
2019-03-19T05:19:16.307Z,9.95
2019-03-19T05:21:44.132Z,10.82
2019-03-19T05:24:12.071Z,13.72
2019-03-19T05:26:39.919Z,8.60
2019-03-19T05:29:07.726Z,10.88
2019-03-19T05:31:35.564Z,9.68
2019-03-19T05:34:13.531Z,13.70
2019-03-19T05:36:41.366Z,12.18
2019-03-19T05:39:10.333Z,14.03
2019-03-19T05:41:40.622Z,14.85
2019-03-19T05:44:08.604Z,16.73
2019-03-19T05:46:36.432Z,12.28
2019-03-19T05:49:04.233Z,17.60
2019-03-19T05:51:32.118Z,11.57
2019-03-19T05:53:59.951Z,10.37
2019-03-19T05:56:27.855Z,11.68
2019-03-19T05:58:55.696Z,12.90
2019-03-19T06:01:23.481Z,12.40
2019-03-19T06:03:51.259Z,12.63
2019-03-19T06:06:19.046Z,10.47
2019-03-19T06:08:46.896Z,12.07
2019-03-19T06:11:14.748Z,9.90
2019-03-19T06:13:42.512Z,11.20
2019-03-19T06:16:10.399Z,16.40
2019-03-19T06:18:38.187Z,12.87
2019-03-19T06:21:05.985Z,10.80
2019-03-19T06:23:33.791Z,21.67
2019-03-19T06:26:01.647Z,17.33
2019-03-19T06:28:29.517Z,13.87
2019-03-19T06:31:09.628Z,14.00
2019-03-19T06:33:37.692Z,15.17
2019-03-19T06:36:05.538Z,14.63
2019-03-19T06:38:33.336Z,14.90
2019-03-19T06:41:01.457Z,14.10
2019-03-19T06:43:29.265Z,15.30
2019-03-19T06:45:57.065Z,10.67
2019-03-19T06:48:24.951Z,15.40
2019-03-19T06:50:52.796Z,16.33
2019-03-19T06:53:20.628Z,14.10
2019-03-19T06:55:48.414Z,12.10
2019-03-19T06:58:16.193Z,12.50
2019-03-19T07:00:43.978Z,10.60
2019-03-19T07:03:11.798Z,12.13
2019-03-19T07:05:39.599Z,11.90
2019-03-19T07:08:07.395Z,15.97
2019-03-19T07:10:35.220Z,10.97
2019-03-19T07:13:05.321Z,9.47
2019-03-19T07:15:38.359Z,10.97
2019-03-19T07:18:06.258Z,10.67
2019-03-19T07:20:34.037Z,9.93
2019-03-19T07:23:01.855Z,9.17
2019-03-19T07:25:29.661Z,9.70
2019-03-19T07:27:57.483Z,8.00
2019-03-19T07:30:25.596Z,8.57
2019-03-19T07:32:53.317Z,11.33
2019-03-19T07:35:26.276Z,12.30
2019-03-19T07:37:54.102Z,7.60
2019-03-19T07:40:22.018Z,13.87
2019-03-19T07:42:49.772Z,13.70
2019-03-19T07:45:17.760Z,13.73
2019-03-19T07:47:45.657Z,7.37
2019-03-19T07:50:14.140Z,6.30
2019-03-19T07:52:41.911Z,6.40
2019-03-19T07:55:19.874Z,12.00
2019-03-19T07:57:47.685Z,10.90
2019-03-19T08:00:15.624Z,5.27
2019-03-19T08:02:43.451Z,5.93
2019-03-19T08:05:11.266Z,5.80
2019-03-19T08:07:39.111Z,5.80
2019-03-19T08:10:07.800Z,3.90
2019-03-19T08:12:35.580Z,3.87
2019-03-19T08:15:10.189Z,4.60
2019-03-19T08:17:38.017Z,3.80
2019-03-19T08:20:07.811Z,5.50
2019-03-19T08:22:35.584Z,6.50
2019-03-19T08:25:03.744Z,6.40
2019-03-19T08:27:31.536Z,4.43
2019-03-19T08:29:59.342Z,3.60
2019-03-19T08:32:27.167Z,3.80
2019-03-19T08:34:54.983Z,3.60
2019-03-19T08:37:22.768Z,3.73
2019-03-19T08:39:50.582Z,3.87
2019-03-19T08:42:18.353Z,4.27
2019-03-19T08:44:46.218Z,3.83
2019-03-19T08:47:14.000Z,3.70
2019-03-19T08:49:41.820Z,4.63
2019-03-19T08:52:09.556Z,4.10
2019-03-19T08:54:37.449Z,4.40
2019-03-19T08:57:05.405Z,4.13
2019-03-19T08:59:33.246Z,4.50
2019-03-19T09:02:00.990Z,4.30
2019-03-19T09:04:28.799Z,3.90
2019-03-19T09:06:56.522Z,4.13
2019-03-19T09:09:24.317Z,5.00
2019-03-19T09:11:52.091Z,4.83
2019-03-19T09:14:20.248Z,4.40
2019-03-19T09:16:48.029Z,4.60
2019-03-19T09:19:15.837Z,4.30
2019-03-19T09:21:43.612Z,4.37
2019-03-19T09:24:11.368Z,4.10
2019-03-19T09:26:39.135Z,5.00
2019-03-19T09:29:16.336Z,4.17
2019-03-19T09:31:36.777Z,3.90
2019-03-19T09:34:04.612Z,5.00
2019-03-19T09:36:32.471Z,4.53
2019-03-19T09:39:00.381Z,4.07
2019-03-19T09:41:28.695Z,3.63
2019-03-19T09:43:56.959Z,3.60
2019-03-19T09:46:25.237Z,3.53
2019-03-19T09:48:54.891Z,3.23
2019-03-19T09:51:23.201Z,2.93
2019-03-19T09:53:51.566Z,2.23
2019-03-19T09:56:19.705Z,2.97
2019-03-19T09:58:48.044Z,2.10
2019-03-19T10:01:19.684Z,1.60
2019-03-19T10:03:53.166Z,1.40
2019-03-19T10:06:29.489Z,1.50
2019-03-19T10:08:57.880Z,1.47
2019-03-19T10:11:27.350Z,1.73
2019-03-19T10:13:56.029Z,1.60
2019-03-19T10:16:24.286Z,2.00
2019-03-19T10:18:52.086Z,1.90
2019-03-19T10:21:19.937Z,1.30
2019-03-19T10:23:47.847Z,1.27
2019-03-19T10:26:15.632Z,1.30
2019-03-19T10:28:43.481Z,1.40
2019-03-19T10:31:11.238Z,1.53
2019-03-19T10:33:39.040Z,1.50
2019-03-19T10:36:07.310Z,1.30
2019-03-19T10:38:35.825Z,1.80
2019-03-19T10:41:04.287Z,1.10
2019-03-19T10:43:32.377Z,2.00
2019-03-19T10:46:00.960Z,2.03
2019-03-19T10:48:28.730Z,2.00
2019-03-19T10:50:56.793Z,2.10
2019-03-19T10:53:25.236Z,2.00
2019-03-19T10:55:53.468Z,1.93
2019-03-19T10:58:21.520Z,1.93
2019-03-19T11:00:49.896Z,2.23
2019-03-19T11:03:18.942Z,1.80
2019-03-19T11:05:47.425Z,2.57
2019-03-19T11:08:15.811Z,1.90
2019-03-19T11:10:43.788Z,1.83
2019-03-19T11:13:12.316Z,1.40
2019-03-19T11:15:40.861Z,2.13
2019-03-19T11:18:09.251Z,2.10
2019-03-19T11:20:37.754Z,2.10
2019-03-19T11:23:06.397Z,2.17
2019-03-19T11:25:34.943Z,1.77
2019-03-19T11:28:02.754Z,1.80
2019-03-19T11:30:30.549Z,2.10
2019-03-19T11:32:58.328Z,2.10
2019-03-19T11:35:26.633Z,2.60
2019-03-19T11:37:54.468Z,1.80
2019-03-19T11:42:50.022Z,2.00
2019-03-19T11:45:17.966Z,1.90
2019-03-19T11:47:45.771Z,2.00
2019-03-19T11:50:16.788Z,1.70
2019-03-19T11:52:44.536Z,2.17
2019-03-19T11:55:13.457Z,1.73
2019-03-19T11:57:41.347Z,2.20
2019-03-19T12:00:44.267Z,1.73
2019-03-19T12:03:16.184Z,1.87
2019-03-19T12:05:41.906Z,2.43
2019-03-19T12:08:09.769Z,1.97
2019-03-19T12:10:38.020Z,2.27
2019-03-19T12:13:06.688Z,1.67
2019-03-19T12:15:35.101Z,1.70
2019-03-19T12:18:03.421Z,1.60
2019-03-19T12:20:31.868Z,2.20
2019-03-19T12:23:00.308Z,1.90
2019-03-19T12:25:31.087Z,2.20
2019-03-19T12:27:58.741Z,1.70
2019-03-19T12:30:26.704Z,2.05
2019-03-19T12:32:54.537Z,2.37
2019-03-19T12:35:22.513Z,2.10
2019-03-19T12:37:50.362Z,1.90
2019-03-19T12:40:18.431Z,2.00
2019-03-19T12:42:46.268Z,2.20
2019-03-19T12:45:14.476Z,2.00
2019-03-19T12:47:42.279Z,1.90
2019-03-19T12:50:13.243Z,2.08
2019-03-19T12:52:41.019Z,2.02
2019-03-19T12:55:09.159Z,1.70
2019-03-19T12:57:36.983Z,2.10
2019-03-19T13:00:09.594Z,1.80
2019-03-19T13:02:37.392Z,1.95
2019-03-19T13:05:06.060Z,1.80
2019-03-19T13:07:33.822Z,1.65
2019-03-19T13:10:01.791Z,1.75
2019-03-19T13:12:29.623Z,1.92
2019-03-19T13:14:57.513Z,2.95
2019-03-19T13:17:25.280Z,2.10
2019-03-19T13:19:53.144Z,2.10
2019-03-19T13:22:20.941Z,2.00
2019-03-19T13:24:49.278Z,2.13
2019-03-19T13:27:17.851Z,1.80
2019-03-19T13:29:46.300Z,1.77
2019-03-19T13:32:14.865Z,1.90
2019-03-19T13:34:43.210Z,2.07
2019-03-19T13:37:11.685Z,2.10
2019-03-19T13:39:40.054Z,2.00
2019-03-19T13:42:08.466Z,2.20
2019-03-19T13:44:36.861Z,2.00
2019-03-19T13:47:05.377Z,2.07
2019-03-19T13:49:39.239Z,2.17
2019-03-19T13:52:07.975Z,2.03
2019-03-19T13:54:36.780Z,2.03
2019-03-19T13:57:04.938Z,2.40
2019-03-19T13:59:35.919Z,1.87
2019-03-19T14:02:03.511Z,2.10
2019-03-19T14:04:32.140Z,2.40
2019-03-19T14:07:00.670Z,2.03
2019-03-19T14:09:29.439Z,1.93
2019-03-19T14:11:57.920Z,2.10
2019-03-19T14:14:26.715Z,2.20
2019-03-19T14:16:54.719Z,2.10
2019-03-19T14:19:22.558Z,1.97
2019-03-19T14:21:50.808Z,2.20
2019-03-19T14:24:18.751Z,2.07
2019-03-19T14:26:46.577Z,1.90
2019-03-19T14:29:14.339Z,1.90
2019-03-19T14:31:42.138Z,1.83
2019-03-19T14:34:09.915Z,2.23
2019-03-19T14:36:37.700Z,3.30
2019-03-19T14:39:07.844Z,3.23
2019-03-19T14:41:35.685Z,2.10
2019-03-19T14:44:03.615Z,2.53
2019-03-19T14:46:31.427Z,1.73
2019-03-19T14:48:59.205Z,2.17
2019-03-19T14:51:26.984Z,1.70
2019-03-19T14:53:54.779Z,1.70
2019-03-19T14:56:22.578Z,1.80
2019-03-19T14:58:50.394Z,1.40
2019-03-19T15:01:19.654Z,1.90
2019-03-19T15:03:48.028Z,1.77
2019-03-19T15:06:15.799Z,2.17
2019-03-19T15:08:43.661Z,2.17
2019-03-19T15:11:11.420Z,2.00
2019-03-19T15:13:39.385Z,1.80
2019-03-19T15:16:07.173Z,2.53
2019-03-19T15:18:34.985Z,1.90
2019-03-19T15:21:02.821Z,1.87
2019-03-19T15:23:30.787Z,1.70
2019-03-19T15:25:59.407Z,1.70
2019-03-19T15:28:27.652Z,1.77
2019-03-19T15:30:55.419Z,2.10
2019-03-19T15:33:23.270Z,2.00
2019-03-19T15:35:51.046Z,1.70
2019-03-19T15:38:18.912Z,1.53
2019-03-19T15:40:46.671Z,1.50
2019-03-19T15:43:14.476Z,1.70
2019-03-19T15:45:42.276Z,1.70
2019-03-19T15:48:10.060Z,2.03
2019-03-19T15:50:37.830Z,2.07
2019-03-19T15:53:06.458Z,2.17
2019-03-19T15:55:34.792Z,1.93
2019-03-19T15:58:03.092Z,1.57
2019-03-19T16:00:31.316Z,3.20
2019-03-19T16:02:59.500Z,2.00
2019-03-19T16:05:27.781Z,2.10
2019-03-19T16:07:56.138Z,2.13
2019-03-19T16:10:24.602Z,1.70
2019-03-19T16:12:53.052Z,1.70
2019-03-19T16:15:22.001Z,2.63
2019-03-19T16:17:50.312Z,2.10
2019-03-19T16:20:18.641Z,2.10
2019-03-19T16:22:47.047Z,1.70
2019-03-19T16:25:15.775Z,1.47
2019-03-19T16:27:44.196Z,1.67
2019-03-19T16:30:13.641Z,2.30
2019-03-19T16:32:41.917Z,1.80
2019-03-19T16:35:10.380Z,1.80
2019-03-19T16:37:38.931Z,2.00
2019-03-19T16:40:11.850Z,2.03
2019-03-19T16:42:40.044Z,2.10
2019-03-19T16:45:08.724Z,1.90
2019-03-19T16:47:36.535Z,1.50
2019-03-19T16:50:05.117Z,2.53
2019-03-19T16:52:32.917Z,2.90
2019-03-19T16:55:00.675Z,1.73
2019-03-19T16:57:28.462Z,1.80
2019-03-19T16:59:56.246Z,1.53
2019-03-19T17:02:24.012Z,1.60
2019-03-19T17:04:51.917Z,1.60
2019-03-19T17:07:19.726Z,1.57
2019-03-19T17:09:47.524Z,2.50
2019-03-19T17:12:15.325Z,2.10
2019-03-19T17:14:43.172Z,1.30
2019-03-19T17:17:11.115Z,1.83
2019-03-19T17:19:39.146Z,1.70
2019-03-19T17:22:06.958Z,1.90
2019-03-19T17:24:34.935Z,1.50
2019-03-19T17:27:02.757Z,1.97
2019-03-19T17:29:30.463Z,2.07
2019-03-19T17:31:58.302Z,3.30
2019-03-19T17:34:26.201Z,6.17
2019-03-19T17:36:54.044Z,4.40
2019-03-19T17:39:21.864Z,2.27
2019-03-19T17:41:49.637Z,1.83
2019-03-19T17:44:18.000Z,1.97
2019-03-19T17:46:46.115Z,3.03
2019-03-19T17:49:14.416Z,2.80
2019-03-19T17:51:42.461Z,2.33
2019-03-19T17:54:15.873Z,2.40
2019-03-19T17:56:44.098Z,3.40
2019-03-19T17:59:12.385Z,4.40
2019-03-19T18:01:40.510Z,3.53
2019-03-19T18:04:08.870Z,3.83
2019-03-19T18:06:36.906Z,2.70
2019-03-19T18:09:07.297Z,2.83
2019-03-19T18:11:35.479Z,3.80
2019-03-19T18:14:13.867Z,5.57
2019-03-19T18:16:42.035Z,6.50
2019-03-19T18:19:10.093Z,4.67
2019-03-19T18:21:38.408Z,3.30
2019-03-19T18:24:07.041Z,7.97
2019-03-19T18:26:35.319Z,6.70
2019-03-19T18:29:03.639Z,6.07
2019-03-19T18:31:32.140Z,5.20
2019-03-19T18:34:09.977Z,4.80
2019-03-19T18:36:30.481Z,5.93
2019-03-19T18:38:58.696Z,7.93
2019-03-19T18:41:27.051Z,5.73
2019-03-19T18:43:55.274Z,8.33
2019-03-19T18:46:23.541Z,9.33
2019-03-19T18:48:51.762Z,8.53
2019-03-19T18:51:20.269Z,8.80
2019-03-19T18:54:19.441Z,8.07
2019-03-19T18:56:47.762Z,6.77
2019-03-19T18:59:16.116Z,9.20
2019-03-19T19:01:44.289Z,8.00
2019-03-19T19:04:12.585Z,7.23
2019-03-19T19:06:40.831Z,6.27
2019-03-19T19:09:09.322Z,8.33
2019-03-19T19:11:37.449Z,9.03
2019-03-19T19:14:05.742Z,9.47
2019-03-19T19:16:35.662Z,7.67
2019-03-19T19:19:03.938Z,7.80
2019-03-19T19:21:32.293Z,6.87
2019-03-19T19:24:00.622Z,6.73
2019-03-19T19:26:29.173Z,4.27
2019-03-19T19:28:57.035Z,4.03
2019-03-19T19:31:34.919Z,3.83
2019-03-19T19:34:02.813Z,4.87
2019-03-19T19:36:30.712Z,5.40
2019-03-19T19:38:58.741Z,5.50
2019-03-19T19:41:26.559Z,6.10
2019-03-19T19:43:54.531Z,5.80
2019-03-19T19:46:22.391Z,5.73
2019-03-19T19:48:50.247Z,4.77
2019-03-19T19:51:18.125Z,5.13
2019-03-19T19:53:46.101Z,5.10
2019-03-19T19:56:14.106Z,5.33
2019-03-19T19:58:41.943Z,4.60
2019-03-19T20:01:17.126Z,4.10
2019-03-19T20:03:45.609Z,5.20
2019-03-19T20:06:13.476Z,5.87
2019-03-19T20:08:41.346Z,5.73
2019-03-19T20:11:11.409Z,5.90
2019-03-19T20:13:39.283Z,5.17
2019-03-19T20:16:08.877Z,4.93
2019-03-19T20:18:36.728Z,5.13
2019-03-19T20:21:04.726Z,4.50
2019-03-19T20:28:58.339Z,5.80
2019-03-19T20:46:07.734Z,5.57
2019-03-19T20:48:36.059Z,5.20
2019-03-19T20:51:04.083Z,6.07
2019-03-19T20:53:31.906Z,8.53
2019-03-19T20:55:59.930Z,6.27
2019-03-19T20:58:27.745Z,6.57
2019-03-19T21:00:55.757Z,5.50
2019-03-19T21:03:23.700Z,5.03
2019-03-19T21:05:51.870Z,7.63
2019-03-19T21:08:19.677Z,8.30
2019-03-19T21:10:47.549Z,5.13
2019-03-19T21:13:15.287Z,5.17
2019-03-19T21:15:45.408Z,5.47
2019-03-19T21:18:13.190Z,7.43
2019-03-19T21:20:41.063Z,6.93
2019-03-19T21:23:08.895Z,7.33
2019-03-19T21:25:41.725Z,7.90
2019-03-19T21:28:13.950Z,9.80
2019-03-19T21:30:39.211Z,9.70
2019-03-19T21:33:07.269Z,8.70
2019-03-19T21:35:35.175Z,7.57
2019-03-19T21:38:02.961Z,7.73
2019-03-19T21:40:30.998Z,6.73
2019-03-19T21:42:58.885Z,6.40
2019-03-19T21:45:27.095Z,7.80
2019-03-19T21:47:54.859Z,6.83
2019-03-19T21:50:22.782Z,6.90
2019-03-19T21:52:50.588Z,6.40
2019-03-19T21:55:24.457Z,5.97
2019-03-19T21:57:52.256Z,6.20
2019-03-19T22:00:21.173Z,6.67
2019-03-19T22:02:48.966Z,5.93
2019-03-19T22:05:16.807Z,6.50
2019-03-19T22:07:49.677Z,6.70
2019-03-19T22:10:17.549Z,6.33
2019-03-19T22:12:45.713Z,6.57
2019-03-19T22:15:15.549Z,6.50
2019-03-19T22:17:53.667Z,6.40
2019-03-19T22:20:21.515Z,5.33
2019-03-19T22:22:49.582Z,5.70
2019-03-19T22:25:17.406Z,5.47
2019-03-19T22:28:04.681Z,5.20
2019-03-19T22:30:32.512Z,5.57
2019-03-19T22:33:00.256Z,5.53
2019-03-19T22:35:28.153Z,5.27
2019-03-19T22:37:55.960Z,5.30
2019-03-19T22:40:23.846Z,5.50
2019-03-19T22:42:51.626Z,3.80
2019-03-19T22:45:19.509Z,4.20
2019-03-19T22:47:47.290Z,4.27
2019-03-19T22:50:15.183Z,4.30
2019-03-19T22:52:43.092Z,4.57
2019-03-19T22:55:10.956Z,4.77
2019-03-19T22:57:38.836Z,4.33
2019-03-19T23:00:12.569Z,4.30
2019-03-19T23:02:40.473Z,3.93
2019-03-19T23:05:08.419Z,4.10
2019-03-19T23:07:36.268Z,4.40
2019-03-19T23:10:04.621Z,5.13
2019-03-19T23:12:32.388Z,5.83
2019-03-19T23:15:00.353Z,6.90
2019-03-19T23:17:28.280Z,5.80
2019-03-19T23:19:57.413Z,5.03
2019-03-19T23:22:25.538Z,4.47
2019-03-19T23:24:53.372Z,4.30
2019-03-19T23:27:21.112Z,4.40
2019-03-19T23:29:48.892Z,4.90
2019-03-19T23:32:16.723Z,4.90
2019-03-19T23:34:44.521Z,4.67
2019-03-19T23:37:50.098Z,9.43
2019-03-19T23:40:17.883Z,5.00
2019-03-19T23:42:45.671Z,4.10
2019-03-19T23:45:13.658Z,4.20
2019-03-19T23:47:41.506Z,4.70
2019-03-19T23:50:10.333Z,4.87
2019-03-19T23:52:38.107Z,4.87
2019-03-19T23:55:06.126Z,5.20
2019-03-19T23:57:33.892Z,4.37
